Terminal Aerodrome Forecast
Issued by NWS

Home | Current Version | Previous Version | Text Only | Print | Product List | Glossary On
Versions: 1 2 3 4 5 6 7 8 9 10 11 12 13 14 15 16 17 18 19 20 21 22
000
FTUS43 KFGF 242144 AAB
TAFBJI
TAF AMD
KBJI 242144Z 2422/2518 VRB06KT P6SM OVC018
      TEMPO 2422/2423 -SHRA BKN025
     FM250000 33006KT P6SM VCSH OVC008=

USA.gov is the U.S. government's official web portal to all federal, state and local government web resources and services.